sensor_id;sensor_type;location;lat;lon;timestamp;temperature;humidity
71184;DHT22;58887;51.980;4.464;2023-06-22T00:02:15;18.73;76.34
71184;DHT22;58887;51.980;4.464;2023-06-22T00:04:41;18.77;76.27
71184;DHT22;58887;51.980;4.464;2023-06-22T00:07:06;18.77;76.19
71184;DHT22;58887;51.980;4.464;2023-06-22T00:09:32;18.76;75.98
71184;DHT22;58887;51.980;4.464;2023-06-22T00:11:58;18.71;75.54
71184;DHT22;58887;51.980;4.464;2023-06-22T00:14:24;18.66;76.07
71184;DHT22;58887;51.980;4.464;2023-06-22T00:16:49;18.69;76.11
71184;DHT22;58887;51.980;4.464;2023-06-22T00:19:20;18.64;76.13
71184;DHT22;58887;51.980;4.464;2023-06-22T00:21:47;18.59;75.79
71184;DHT22;58887;51.980;4.464;2023-06-22T00:24:13;18.56;75.64
71184;DHT22;58887;51.980;4.464;2023-06-22T00:26:39;18.55;75.93
71184;DHT22;58887;51.980;4.464;2023-06-22T00:29:04;18.52;76.36
71184;DHT22;58887;51.980;4.464;2023-06-22T00:31:29;18.49;76.45
71184;DHT22;58887;51.980;4.464;2023-06-22T00:33:55;18.45;76.40
71184;DHT22;58887;51.980;4.464;2023-06-22T00:36:20;18.43;76.27
71184;DHT22;58887;51.980;4.464;2023-06-22T00:38:46;18.40;76.46
71184;DHT22;58887;51.980;4.464;2023-06-22T00:41:11;18.42;76.61
71184;DHT22;58887;51.980;4.464;2023-06-22T00:43:37;18.43;76.57
71184;DHT22;58887;51.980;4.464;2023-06-22T00:46:02;18.45;77.06
71184;DHT22;58887;51.980;4.464;2023-06-22T00:48:28;18.42;77.31
71184;DHT22;58887;51.980;4.464;2023-06-22T00:50:54;18.43;76.99
71184;DHT22;58887;51.980;4.464;2023-06-22T00:53:21;18.39;77.25
71184;DHT22;58887;51.980;4.464;2023-06-22T00:55:48;18.35;77.17
71184;DHT22;58887;51.980;4.464;2023-06-22T00:58:17;18.36;77.64
71184;DHT22;58887;51.980;4.464;2023-06-22T01:00:43;18.40;77.76
71184;DHT22;58887;51.980;4.464;2023-06-22T01:03:09;18.40;77.50
71184;DHT22;58887;51.980;4.464;2023-06-22T01:05:35;18.35;76.83
71184;DHT22;58887;51.980;4.464;2023-06-22T01:08:05;18.30;77.21
71184;DHT22;58887;51.980;4.464;2023-06-22T01:10:53;18.30;77.55
71184;DHT22;58887;51.980;4.464;2023-06-22T01:16:11;18.32;78.00
71184;DHT22;58887;51.980;4.464;2023-06-22T01:18:42;18.28;77.61
71184;DHT22;58887;51.980;4.464;2023-06-22T01:21:14;18.25;77.27
71184;DHT22;58887;51.980;4.464;2023-06-22T01:26:47;18.18;77.39
71184;DHT22;58887;51.980;4.464;2023-06-22T01:29:21;18.16;77.59
71184;DHT22;58887;51.980;4.464;2023-06-22T01:31:50;18.15;77.50
71184;DHT22;58887;51.980;4.464;2023-06-22T01:34:17;18.13;77.37
71184;DHT22;58887;51.980;4.464;2023-06-22T01:36:44;18.06;78.17
71184;DHT22;58887;51.980;4.464;2023-06-22T01:39:11;18.08;78.41
71184;DHT22;58887;51.980;4.464;2023-06-22T01:41:38;18.09;78.53
71184;DHT22;58887;51.980;4.464;2023-06-22T01:44:09;18.08;78.61
71184;DHT22;58887;51.980;4.464;2023-06-22T01:46:35;18.06;78.59
71184;DHT22;58887;51.980;4.464;2023-06-22T01:49:04;18.18;78.72
71184;DHT22;58887;51.980;4.464;2023-06-22T01:51:30;18.18;78.34
71184;DHT22;58887;51.980;4.464;2023-06-22T01:53:56;18.11;78.07
71184;DHT22;58887;51.980;4.464;2023-06-22T01:56:22;18.08;77.95
71184;DHT22;58887;51.980;4.464;2023-06-22T01:59:23;18.01;78.24
71184;DHT22;58887;51.980;4.464;2023-06-22T02:02:11;17.92;78.14
71184;DHT22;58887;51.980;4.464;2023-06-22T02:04:47;17.88;78.08
71184;DHT22;58887;51.980;4.464;2023-06-22T02:07:15;17.84;78.10
71184;DHT22;58887;51.980;4.464;2023-06-22T02:09:47;17.85;78.87
71184;DHT22;58887;51.980;4.464;2023-06-22T02:12:18;17.84;78.77
71184;DHT22;58887;51.980;4.464;2023-06-22T02:14:45;17.80;78.64
71184;DHT22;58887;51.980;4.464;2023-06-22T02:17:13;17.75;78.40
71184;DHT22;58887;51.980;4.464;2023-06-22T02:19:42;17.75;78.50
71184;DHT22;58887;51.980;4.464;2023-06-22T02:22:08;17.74;79.01
71184;DHT22;58887;51.980;4.464;2023-06-22T02:24:33;17.77;79.11
71184;DHT22;58887;51.980;4.464;2023-06-22T02:27:00;17.77;78.79
71184;DHT22;58887;51.980;4.464;2023-06-22T02:29:26;17.71;78.24
71184;DHT22;58887;51.980;4.464;2023-06-22T02:31:53;17.64;78.40
71184;DHT22;58887;51.980;4.464;2023-06-22T02:34:19;17.57;78.22
71184;DHT22;58887;51.980;4.464;2023-06-22T02:36:45;17.57;78.31
71184;DHT22;58887;51.980;4.464;2023-06-22T02:39:23;17.51;78.40
71184;DHT22;58887;51.980;4.464;2023-06-22T02:41:50;17.53;78.72
71184;DHT22;58887;51.980;4.464;2023-06-22T02:44:16;17.54;78.47
71184;DHT22;58887;51.980;4.464;2023-06-22T02:46:42;17.55;78.55
71184;DHT22;58887;51.980;4.464;2023-06-22T02:49:08;17.57;78.99
71184;DHT22;58887;51.980;4.464;2023-06-22T02:51:34;17.54;78.89
71184;DHT22;58887;51.980;4.464;2023-06-22T02:54:00;17.54;79.02
71184;DHT22;58887;51.980;4.464;2023-06-22T02:56:26;17.54;79.28
71184;DHT22;58887;51.980;4.464;2023-06-22T02:58:51;17.57;79.48
71184;DHT22;58887;51.980;4.464;2023-06-22T03:01:17;17.55;79.20
71184;DHT22;58887;51.980;4.464;2023-06-22T03:03:48;17.50;79.33
71184;DHT22;58887;51.980;4.464;2023-06-22T03:06:13;17.54;79.47
71184;DHT22;58887;51.980;4.464;2023-06-22T03:08:39;17.54;79.48
71184;DHT22;58887;51.980;4.464;2023-06-22T03:11:04;17.54;79.52
71184;DHT22;58887;51.980;4.464;2023-06-22T03:13:30;17.50;78.90
71184;DHT22;58887;51.980;4.464;2023-06-22T03:15:55;17.43;78.62
71184;DHT22;58887;51.980;4.464;2023-06-22T03:18:21;17.40;79.20
71184;DHT22;58887;51.980;4.464;2023-06-22T03:20:47;17.44;79.33
71184;DHT22;58887;51.980;4.464;2023-06-22T03:23:13;17.41;79.42
71184;DHT22;58887;51.980;4.464;2023-06-22T03:25:38;17.41;79.75
71184;DHT22;58887;51.980;4.464;2023-06-22T03:28:04;17.46;79.92
71184;DHT22;58887;51.980;4.464;2023-06-22T03:30:29;17.46;79.89
71184;DHT22;58887;51.980;4.464;2023-06-22T03:32:55;17.51;79.94
71184;DHT22;58887;51.980;4.464;2023-06-22T03:35:20;17.50;79.64
71184;DHT22;58887;51.980;4.464;2023-06-22T03:37:45;17.47;79.58
71184;DHT22;58887;51.980;4.464;2023-06-22T03:40:11;17.47;79.68
71184;DHT22;58887;51.980;4.464;2023-06-22T03:42:37;17.53;80.02
71184;DHT22;58887;51.980;4.464;2023-06-22T03:45:03;17.57;79.90
71184;DHT22;58887;51.980;4.464;2023-06-22T03:47:29;17.59;79.89
71184;DHT22;58887;51.980;4.464;2023-06-22T03:49:54;17.57;79.85
71184;DHT22;58887;51.980;4.464;2023-06-22T03:52:21;17.57;80.09
71184;DHT22;58887;51.980;4.464;2023-06-22T03:54:47;17.61;80.20
71184;DHT22;58887;51.980;4.464;2023-06-22T03:57:13;17.60;80.04
71184;DHT22;58887;51.980;4.464;2023-06-22T03:59:39;17.63;80.21
71184;DHT22;58887;51.980;4.464;2023-06-22T04:02:04;17.66;80.25
71184;DHT22;58887;51.980;4.464;2023-06-22T04:04:29;17.71;80.23
71184;DHT22;58887;51.980;4.464;2023-06-22T04:06:56;17.73;80.23
71184;DHT22;58887;51.980;4.464;2023-06-22T04:09:21;17.75;80.29
71184;DHT22;58887;51.980;4.464;2023-06-22T04:11:47;17.82;80.44
71184;DHT22;58887;51.980;4.464;2023-06-22T04:14:13;17.84;80.16
71184;DHT22;58887;51.980;4.464;2023-06-22T04:16:38;17.88;80.27
71184;DHT22;58887;51.980;4.464;2023-06-22T04:19:04;17.97;80.24
71184;DHT22;58887;51.980;4.464;2023-06-22T04:21:29;18.01;80.32
71184;DHT22;58887;51.980;4.464;2023-06-22T04:23:55;18.04;80.20
71184;DHT22;58887;51.980;4.464;2023-06-22T04:26:20;18.05;80.13
71184;DHT22;58887;51.980;4.464;2023-06-22T04:28:48;18.09;80.16
71184;DHT22;58887;51.980;4.464;2023-06-22T04:31:21;18.15;80.27
71184;DHT22;58887;51.980;4.464;2023-06-22T04:33:46;18.21;80.32
71184;DHT22;58887;51.980;4.464;2023-06-22T04:36:12;18.30;80.06
71184;DHT22;58887;51.980;4.464;2023-06-22T04:38:39;18.36;79.99
71184;DHT22;58887;51.980;4.464;2023-06-22T04:41:04;18.43;80.19
71184;DHT22;58887;51.980;4.464;2023-06-22T04:43:30;18.57;79.90
71184;DHT22;58887;51.980;4.464;2023-06-22T04:45:57;18.61;79.81
71184;DHT22;58887;51.980;4.464;2023-06-22T04:48:31;18.73;79.73
71184;DHT22;58887;51.980;4.464;2023-06-22T04:51:01;18.81;79.55
71184;DHT22;58887;51.980;4.464;2023-06-22T04:53:30;18.94;79.29
71184;DHT22;58887;51.980;4.464;2023-06-22T04:55:55;19.04;79.00
71184;DHT22;58887;51.980;4.464;2023-06-22T04:58:21;19.07;78.73
71184;DHT22;58887;51.980;4.464;2023-06-22T05:00:47;19.15;78.79
71184;DHT22;58887;51.980;4.464;2023-06-22T05:03:12;19.19;78.70
71184;DHT22;58887;51.980;4.464;2023-06-22T05:05:38;19.28;78.48
71184;DHT22;58887;51.980;4.464;2023-06-22T05:08:03;19.32;78.61
71184;DHT22;58887;51.980;4.464;2023-06-22T05:10:32;19.41;78.66
71184;DHT22;58887;51.980;4.464;2023-06-22T05:12:58;19.45;78.41
71184;DHT22;58887;51.980;4.464;2023-06-22T05:15:24;19.58;78.12
71184;DHT22;58887;51.980;4.464;2023-06-22T05:17:53;19.68;78.02
71184;DHT22;58887;51.980;4.464;2023-06-22T05:20:19;19.82;77.50
71184;DHT22;58887;51.980;4.464;2023-06-22T05:22:44;19.89;77.34
71184;DHT22;58887;51.980;4.464;2023-06-22T05:25:11;19.92;77.08
71184;DHT22;58887;51.980;4.464;2023-06-22T05:27:37;19.96;76.59
71184;DHT22;58887;51.980;4.464;2023-06-22T05:30:09;19.93;76.85
71184;DHT22;58887;51.980;4.464;2023-06-22T05:32:35;19.94;76.76
71184;DHT22;58887;51.980;4.464;2023-06-22T05:35:01;20.00;76.64
71184;DHT22;58887;51.980;4.464;2023-06-22T05:37:28;20.00;76.50
71184;DHT22;58887;51.980;4.464;2023-06-22T05:39:53;20.06;76.44
71184;DHT22;58887;51.980;4.464;2023-06-22T05:42:21;20.16;76.33
71184;DHT22;58887;51.980;4.464;2023-06-22T05:44:46;20.21;76.07
71184;DHT22;58887;51.980;4.464;2023-06-22T05:47:12;20.26;75.94
71184;DHT22;58887;51.980;4.464;2023-06-22T05:49:38;20.31;75.66
71184;DHT22;58887;51.980;4.464;2023-06-22T05:52:03;20.41;75.62
71184;DHT22;58887;51.980;4.464;2023-06-22T05:54:30;20.44;75.49
71184;DHT22;58887;51.980;4.464;2023-06-22T05:56:55;20.52;75.29
71184;DHT22;58887;51.980;4.464;2023-06-22T05:59:21;20.59;75.18
71184;DHT22;58887;51.980;4.464;2023-06-22T06:01:46;20.74;74.82
71184;DHT22;58887;51.980;4.464;2023-06-22T06:04:18;20.75;74.60
71184;DHT22;58887;51.980;4.464;2023-06-22T06:06:44;20.79;74.38
71184;DHT22;58887;51.980;4.464;2023-06-22T06:09:10;20.86;74.06
71184;DHT22;58887;51.980;4.464;2023-06-22T06:11:37;20.95;74.36
71184;DHT22;58887;51.980;4.464;2023-06-22T06:14:02;21.07;73.82
71184;DHT22;58887;51.980;4.464;2023-06-22T06:16:28;21.12;73.57
71184;DHT22;58887;51.980;4.464;2023-06-22T06:18:53;21.16;73.72
71184;DHT22;58887;51.980;4.464;2023-06-22T06:21:21;21.25;73.09
71184;DHT22;58887;51.980;4.464;2023-06-22T06:23:46;21.26;72.89
71184;DHT22;58887;51.980;4.464;2023-06-22T06:26:12;21.26;72.55
71184;DHT22;58887;51.980;4.464;2023-06-22T06:28:38;21.32;72.45
71184;DHT22;58887;51.980;4.464;2023-06-22T06:31:03;21.44;72.01
71184;DHT22;58887;51.980;4.464;2023-06-22T06:33:32;21.51;72.08
71184;DHT22;58887;51.980;4.464;2023-06-22T06:35:58;21.56;71.81
71184;DHT22;58887;51.980;4.464;2023-06-22T06:38:23;21.60;72.06
71184;DHT22;58887;51.980;4.464;2023-06-22T06:40:49;21.61;72.27
71184;DHT22;58887;51.980;4.464;2023-06-22T06:43:14;21.74;72.33
71184;DHT22;58887;51.980;4.464;2023-06-22T06:45:40;21.81;72.07
71184;DHT22;58887;51.980;4.464;2023-06-22T06:48:05;21.88;72.10
71184;DHT22;58887;51.980;4.464;2023-06-22T06:50:31;21.85;71.71
71184;DHT22;58887;51.980;4.464;2023-06-22T06:52:56;21.83;71.09
71184;DHT22;58887;51.980;4.464;2023-06-22T06:55:24;21.93;71.92
71184;DHT22;58887;51.980;4.464;2023-06-22T06:57:50;22.09;71.54
71184;DHT22;58887;51.980;4.464;2023-06-22T07:00:18;22.16;70.96
71184;DHT22;58887;51.980;4.464;2023-06-22T07:02:44;22.36;70.51
71184;DHT22;58887;51.980;4.464;2023-06-22T07:05:12;22.52;70.48
71184;DHT22;58887;51.980;4.464;2023-06-22T07:07:38;22.64;69.05
71184;DHT22;58887;51.980;4.464;2023-06-22T07:10:05;22.77;68.21
71184;DHT22;58887;51.980;4.464;2023-06-22T07:12:31;22.93;67.87
71184;DHT22;58887;51.980;4.464;2023-06-22T07:15:04;23.13;66.79
71184;DHT22;58887;51.980;4.464;2023-06-22T07:17:31;23.31;65.47
71184;DHT22;58887;51.980;4.464;2023-06-22T07:19:57;23.50;64.19
71184;DHT22;58887;51.980;4.464;2023-06-22T07:22:22;23.65;64.25
71184;DHT22;58887;51.980;4.464;2023-06-22T07:24:48;23.92;64.32
71184;DHT22;58887;51.980;4.464;2023-06-22T07:27:14;23.98;63.81
71184;DHT22;58887;51.980;4.464;2023-06-22T07:29:43;24.02;62.14
71184;DHT22;58887;51.980;4.464;2023-06-22T07:32:08;24.08;61.91
71184;DHT22;58887;51.980;4.464;2023-06-22T07:34:34;24.20;61.25
71184;DHT22;58887;51.980;4.464;2023-06-22T07:37:00;24.31;61.26
71184;DHT22;58887;51.980;4.464;2023-06-22T07:39:25;24.30;61.22
71184;DHT22;58887;51.980;4.464;2023-06-22T07:41:52;24.39;60.76
71184;DHT22;58887;51.980;4.464;2023-06-22T07:44:17;24.44;60.93
71184;DHT22;58887;51.980;4.464;2023-06-22T07:46:42;24.47;60.15
71184;DHT22;58887;51.980;4.464;2023-06-22T07:49:08;24.61;58.92
71184;DHT22;58887;51.980;4.464;2023-06-22T07:51:34;24.78;58.05
71184;DHT22;58887;51.980;4.464;2023-06-22T07:54:00;24.96;57.02
71184;DHT22;58887;51.980;4.464;2023-06-22T07:56:25;25.01;57.17
71184;DHT22;58887;51.980;4.464;2023-06-22T07:58:50;25.14;56.88
71184;DHT22;58887;51.980;4.464;2023-06-22T08:01:17;25.19;56.13
71184;DHT22;58887;51.980;4.464;2023-06-22T08:03:44;25.32;56.16
71184;DHT22;58887;51.980;4.464;2023-06-22T08:06:10;25.50;54.87
71184;DHT22;58887;51.980;4.464;2023-06-22T08:08:36;25.65;54.01
71184;DHT22;58887;51.980;4.464;2023-06-22T08:11:02;25.86;53.61
71184;DHT22;58887;51.980;4.464;2023-06-22T08:13:27;25.91;54.65
71184;DHT22;58887;51.980;4.464;2023-06-22T08:15:53;26.15;53.68
71184;DHT22;58887;51.980;4.464;2023-06-22T08:18:19;26.20;53.29
71184;DHT22;58887;51.980;4.464;2023-06-22T08:20:44;26.36;53.20
71184;DHT22;58887;51.980;4.464;2023-06-22T08:23:10;26.42;51.20
71184;DHT22;58887;51.980;4.464;2023-06-22T08:25:35;26.53;52.60
71184;DHT22;58887;51.980;4.464;2023-06-22T08:28:03;26.59;53.27
71184;DHT22;58887;51.980;4.464;2023-06-22T08:30:28;26.57;51.84
71184;DHT22;58887;51.980;4.464;2023-06-22T08:32:53;26.73;52.25
71184;DHT22;58887;51.980;4.464;2023-06-22T08:35:22;26.83;51.50
71184;DHT22;58887;51.980;4.464;2023-06-22T08:37:48;26.89;50.00
71184;DHT22;58887;51.980;4.464;2023-06-22T08:40:18;27.02;49.24
71184;DHT22;58887;51.980;4.464;2023-06-22T08:42:46;27.27;49.53
71184;DHT22;58887;51.980;4.464;2023-06-22T08:45:13;27.50;48.52
71184;DHT22;58887;51.980;4.464;2023-06-22T08:47:40;27.55;48.37
71184;DHT22;58887;51.980;4.464;2023-06-22T08:50:07;27.55;49.37
71184;DHT22;58887;51.980;4.464;2023-06-22T08:52:36;27.78;48.26
71184;DHT22;58887;51.980;4.464;2023-06-22T08:55:02;28.01;47.21
71184;DHT22;58887;51.980;4.464;2023-06-22T08:57:28;28.40;47.30
71184;DHT22;58887;51.980;4.464;2023-06-22T08:59:54;28.40;46.13
71184;DHT22;58887;51.980;4.464;2023-06-22T09:02:25;28.54;45.73
71184;DHT22;58887;51.980;4.464;2023-06-22T09:04:51;28.87;47.15
71184;DHT22;58887;51.980;4.464;2023-06-22T09:07:21;28.63;47.48
71184;DHT22;58887;51.980;4.464;2023-06-22T09:09:49;28.12;47.46
71184;DHT22;58887;51.980;4.464;2023-06-22T09:12:15;27.93;47.13
71184;DHT22;58887;51.980;4.464;2023-06-22T09:14:41;28.12;48.07
71184;DHT22;58887;51.980;4.464;2023-06-22T09:17:06;28.26;47.86
71184;DHT22;58887;51.980;4.464;2023-06-22T09:19:31;28.22;48.37
71184;DHT22;58887;51.980;4.464;2023-06-22T09:21:57;28.63;48.67
71184;DHT22;58887;51.980;4.464;2023-06-22T09:24:22;29.00;48.33
71184;DHT22;58887;51.980;4.464;2023-06-22T09:26:48;28.91;47.99
71184;DHT22;58887;51.980;4.464;2023-06-22T09:29:13;28.84;48.14
71184;DHT22;58887;51.980;4.464;2023-06-22T09:31:40;28.88;48.32
71184;DHT22;58887;51.980;4.464;2023-06-22T09:34:08;28.68;48.55
71184;DHT22;58887;51.980;4.464;2023-06-22T09:36:33;28.60;48.80
71184;DHT22;58887;51.980;4.464;2023-06-22T09:38:59;28.32;48.23
71184;DHT22;58887;51.980;4.464;2023-06-22T09:41:26;28.40;48.50
71184;DHT22;58887;51.980;4.464;2023-06-22T09:43:52;28.43;46.82
71184;DHT22;58887;51.980;4.464;2023-06-22T09:46:18;28.44;46.93
71184;DHT22;58887;51.980;4.464;2023-06-22T09:48:43;28.46;47.54
71184;DHT22;58887;51.980;4.464;2023-06-22T09:51:09;28.42;47.66
71184;DHT22;58887;51.980;4.464;2023-06-22T09:53:34;28.23;45.42
71184;DHT22;58887;51.980;4.464;2023-06-22T09:56:00;28.09;47.96
71184;DHT22;58887;51.980;4.464;2023-06-22T09:58:27;28.12;47.80
71184;DHT22;58887;51.980;4.464;2023-06-22T10:00:52;28.02;45.69
71184;DHT22;58887;51.980;4.464;2023-06-22T10:03:20;28.02;47.67
71184;DHT22;58887;51.980;4.464;2023-06-22T10:05:45;28.01;48.10
71184;DHT22;58887;51.980;4.464;2023-06-22T10:08:11;27.89;49.41
71184;DHT22;58887;51.980;4.464;2023-06-22T10:10:37;27.77;50.55
71184;DHT22;58887;51.980;4.464;2023-06-22T10:13:09;28.01;52.01
71184;DHT22;58887;51.980;4.464;2023-06-22T10:15:39;27.92;48.45
71184;DHT22;58887;51.980;4.464;2023-06-22T10:18:04;27.85;49.97
71184;DHT22;58887;51.980;4.464;2023-06-22T10:20:30;27.85;48.28
71184;DHT22;58887;51.980;4.464;2023-06-22T10:22:56;27.89;48.61
71184;DHT22;58887;51.980;4.464;2023-06-22T10:25:22;27.86;49.96
71184;DHT22;58887;51.980;4.464;2023-06-22T10:27:47;27.75;49.18
71184;DHT22;58887;51.980;4.464;2023-06-22T10:30:13;27.55;50.27
71184;DHT22;58887;51.980;4.464;2023-06-22T10:32:39;27.48;49.08
71184;DHT22;58887;51.980;4.464;2023-06-22T10:35:06;27.37;50.49
71184;DHT22;58887;51.980;4.464;2023-06-22T10:37:33;27.24;50.63
71184;DHT22;58887;51.980;4.464;2023-06-22T10:39:59;27.23;50.90
71184;DHT22;58887;51.980;4.464;2023-06-22T10:42:24;27.31;51.55
71184;DHT22;58887;51.980;4.464;2023-06-22T10:44:50;27.27;51.06
71184;DHT22;58887;51.980;4.464;2023-06-22T10:47:15;27.27;50.83
71184;DHT22;58887;51.980;4.464;2023-06-22T10:49:41;27.17;51.60
71184;DHT22;58887;51.980;4.464;2023-06-22T10:52:08;27.04;52.16
71184;DHT22;58887;51.980;4.464;2023-06-22T10:54:51;26.94;53.52
71184;DHT22;58887;51.980;4.464;2023-06-22T10:57:18;26.86;53.98
71184;DHT22;58887;51.980;4.464;2023-06-22T10:59:43;26.97;50.40
71184;DHT22;58887;51.980;4.464;2023-06-22T11:02:08;27.08;51.42
71184;DHT22;58887;51.980;4.464;2023-06-22T11:04:34;27.03;49.92
71184;DHT22;58887;51.980;4.464;2023-06-22T11:07:00;27.06;51.24
71184;DHT22;58887;51.980;4.464;2023-06-22T11:09:25;27.26;49.52
71184;DHT22;58887;51.980;4.464;2023-06-22T11:11:52;27.37;48.89
71184;DHT22;58887;51.980;4.464;2023-06-22T11:14:19;27.33;50.05
71184;DHT22;58887;51.980;4.464;2023-06-22T11:16:44;27.35;50.07
71184;DHT22;58887;51.980;4.464;2023-06-22T11:19:12;27.45;50.05
71184;DHT22;58887;51.980;4.464;2023-06-22T11:21:38;27.51;50.27
71184;DHT22;58887;51.980;4.464;2023-06-22T11:24:03;27.55;51.43
71184;DHT22;58887;51.980;4.464;2023-06-22T11:26:29;27.71;50.41
71184;DHT22;58887;51.980;4.464;2023-06-22T11:28:55;27.55;49.41
71184;DHT22;58887;51.980;4.464;2023-06-22T11:31:20;27.35;47.98
71184;DHT22;58887;51.980;4.464;2023-06-22T11:33:46;27.23;49.70
71184;DHT22;58887;51.980;4.464;2023-06-22T11:36:14;27.17;50.94
71184;DHT22;58887;51.980;4.464;2023-06-22T11:38:40;27.11;52.16
71184;DHT22;58887;51.980;4.464;2023-06-22T11:41:06;27.10;53.25
71184;DHT22;58887;51.980;4.464;2023-06-22T11:43:32;27.10;51.62
71184;DHT22;58887;51.980;4.464;2023-06-22T11:45:58;26.90;51.17
71184;DHT22;58887;51.980;4.464;2023-06-22T11:48:24;26.72;50.60
71184;DHT22;58887;51.980;4.464;2023-06-22T11:50:50;26.55;51.75
71184;DHT22;58887;51.980;4.464;2023-06-22T11:53:15;26.60;52.45
71184;DHT22;58887;51.980;4.464;2023-06-22T11:55:43;26.62;52.94
71184;DHT22;58887;51.980;4.464;2023-06-22T11:58:09;26.63;53.58
71184;DHT22;58887;51.980;4.464;2023-06-22T12:00:34;26.49;54.34
71184;DHT22;58887;51.980;4.464;2023-06-22T12:03:00;26.55;55.12
71184;DHT22;58887;51.980;4.464;2023-06-22T12:05:26;26.62;54.36
71184;DHT22;58887;51.980;4.464;2023-06-22T12:07:57;26.52;54.31
71184;DHT22;58887;51.980;4.464;2023-06-22T12:10:24;26.48;54.87
71184;DHT22;58887;51.980;4.464;2023-06-22T12:12:50;26.39;55.71
71184;DHT22;58887;51.980;4.464;2023-06-22T12:15:15;26.45;56.48
71184;DHT22;58887;51.980;4.464;2023-06-22T12:17:41;26.35;57.91
71184;DHT22;58887;51.980;4.464;2023-06-22T12:20:07;26.46;57.36
71184;DHT22;58887;51.980;4.464;2023-06-22T12:22:33;26.49;57.14
71184;DHT22;58887;51.980;4.464;2023-06-22T12:24:59;26.60;56.55
71184;DHT22;58887;51.980;4.464;2023-06-22T12:27:25;26.44;54.59
71184;DHT22;58887;51.980;4.464;2023-06-22T12:29:50;26.32;55.24
71184;DHT22;58887;51.980;4.464;2023-06-22T12:32:18;26.25;55.72
71184;DHT22;58887;51.980;4.464;2023-06-22T12:34:44;26.21;57.01
71184;DHT22;58887;51.980;4.464;2023-06-22T12:37:10;26.17;58.69
71184;DHT22;58887;51.980;4.464;2023-06-22T12:39:36;26.18;59.15
71184;DHT22;58887;51.980;4.464;2023-06-22T12:42:01;26.14;60.13
71184;DHT22;58887;51.980;4.464;2023-06-22T12:44:27;26.04;59.86
71184;DHT22;58887;51.980;4.464;2023-06-22T12:46:52;25.94;60.17
71184;DHT22;58887;51.980;4.464;2023-06-22T12:49:18;25.86;60.32
71184;DHT22;58887;51.980;4.464;2023-06-22T12:51:45;25.74;59.82
71184;DHT22;58887;51.980;4.464;2023-06-22T12:54:11;25.78;60.16
71184;DHT22;58887;51.980;4.464;2023-06-22T12:56:37;25.86;60.43
71184;DHT22;58887;51.980;4.464;2023-06-22T12:59:06;25.84;59.87
71184;DHT22;58887;51.980;4.464;2023-06-22T13:01:31;25.87;59.64
71184;DHT22;58887;51.980;4.464;2023-06-22T13:03:58;25.84;59.98
71184;DHT22;58887;51.980;4.464;2023-06-22T13:06:23;25.74;60.67
71184;DHT22;58887;51.980;4.464;2023-06-22T13:08:49;25.70;60.87
71184;DHT22;58887;51.980;4.464;2023-06-22T13:11:14;25.62;61.58
71184;DHT22;58887;51.980;4.464;2023-06-22T13:13:40;25.49;61.65
71184;DHT22;58887;51.980;4.464;2023-06-22T13:16:07;25.47;62.27
71184;DHT22;58887;51.980;4.464;2023-06-22T13:18:32;25.39;62.53
71184;DHT22;58887;51.980;4.464;2023-06-22T13:21:03;25.39;62.89
71184;DHT22;58887;51.980;4.464;2023-06-22T13:23:29;25.45;63.22
71184;DHT22;58887;51.980;4.464;2023-06-22T13:25:54;25.47;63.17
71184;DHT22;58887;51.980;4.464;2023-06-22T13:28:20;25.50;63.19
71184;DHT22;58887;51.980;4.464;2023-06-22T13:30:47;25.45;63.41
71184;DHT22;58887;51.980;4.464;2023-06-22T13:33:13;25.36;63.62
71184;DHT22;58887;51.980;4.464;2023-06-22T13:35:39;25.30;64.40
71184;DHT22;58887;51.980;4.464;2023-06-22T13:38:05;25.23;64.22
71184;DHT22;58887;51.980;4.464;2023-06-22T13:40:30;25.22;64.42
71184;DHT22;58887;51.980;4.464;2023-06-22T13:42:56;25.29;64.45
71184;DHT22;58887;51.980;4.464;2023-06-22T13:45:22;25.12;63.94
71184;DHT22;58887;51.980;4.464;2023-06-22T13:47:47;24.99;64.49
71184;DHT22;58887;51.980;4.464;2023-06-22T13:50:13;24.95;65.10
71184;DHT22;58887;51.980;4.464;2023-06-22T13:52:39;24.89;64.92
71184;DHT22;58887;51.980;4.464;2023-06-22T13:55:05;24.89;64.56
71184;DHT22;58887;51.980;4.464;2023-06-22T13:57:32;24.91;64.88
71184;DHT22;58887;51.980;4.464;2023-06-22T13:59:57;25.01;66.27
71184;DHT22;58887;51.980;4.464;2023-06-22T14:02:23;24.96;66.00
71184;DHT22;58887;51.980;4.464;2023-06-22T14:04:48;25.02;65.93
71184;DHT22;58887;51.980;4.464;2023-06-22T14:07:14;24.98;66.74
71184;DHT22;58887;51.980;4.464;2023-06-22T14:09:39;25.05;66.18
71184;DHT22;58887;51.980;4.464;2023-06-22T14:12:06;24.94;67.78
71184;DHT22;58887;51.980;4.464;2023-06-22T14:14:32;24.87;67.53
71184;DHT22;58887;51.980;4.464;2023-06-22T14:16:58;24.88;67.07
71184;DHT22;58887;51.980;4.464;2023-06-22T14:19:24;24.84;67.66
71184;DHT22;58887;51.980;4.464;2023-06-22T14:21:50;24.84;67.92
71184;DHT22;58887;51.980;4.464;2023-06-22T14:24:15;24.68;68.23
71184;DHT22;58887;51.980;4.464;2023-06-22T14:26:41;24.64;68.83
71184;DHT22;58887;51.980;4.464;2023-06-22T14:29:06;24.61;69.73
71184;DHT22;58887;51.980;4.464;2023-06-22T14:31:32;24.63;70.10
71184;DHT22;58887;51.980;4.464;2023-06-22T14:33:57;24.68;70.33
71184;DHT22;58887;51.980;4.464;2023-06-22T14:36:23;24.69;70.54
71184;DHT22;58887;51.980;4.464;2023-06-22T14:38:49;24.71;70.29
71184;DHT22;58887;51.980;4.464;2023-06-22T14:41:14;24.72;70.84
71184;DHT22;58887;51.980;4.464;2023-06-22T14:43:49;24.68;70.34
71184;DHT22;58887;51.980;4.464;2023-06-22T14:46:17;24.64;71.33
71184;DHT22;58887;51.980;4.464;2023-06-22T14:48:42;24.61;71.71
71184;DHT22;58887;51.980;4.464;2023-06-22T14:51:09;24.53;70.96
71184;DHT22;58887;51.980;4.464;2023-06-22T14:53:35;24.53;71.28
71184;DHT22;58887;51.980;4.464;2023-06-22T14:56:01;24.48;71.86
71184;DHT22;58887;51.980;4.464;2023-06-22T14:58:33;24.41;72.30
71184;DHT22;58887;51.980;4.464;2023-06-22T15:01:00;24.46;72.06
71184;DHT22;58887;51.980;4.464;2023-06-22T15:03:25;24.41;72.21
71184;DHT22;58887;51.980;4.464;2023-06-22T15:05:54;24.34;72.25
71184;DHT22;58887;51.980;4.464;2023-06-22T15:08:21;24.29;71.94
71184;DHT22;58887;51.980;4.464;2023-06-22T15:10:46;24.19;72.17
71184;DHT22;58887;51.980;4.464;2023-06-22T15:13:12;24.12;72.32
71184;DHT22;58887;51.980;4.464;2023-06-22T15:15:37;24.06;71.23
71184;DHT22;58887;51.980;4.464;2023-06-22T15:18:03;23.95;70.70
71184;DHT22;58887;51.980;4.464;2023-06-22T15:20:29;23.79;70.01
71184;DHT22;58887;51.980;4.464;2023-06-22T15:22:54;23.71;69.80
71184;DHT22;58887;51.980;4.464;2023-06-22T15:25:20;23.68;71.27
71184;DHT22;58887;51.980;4.464;2023-06-22T15:27:45;23.62;70.60
71184;DHT22;58887;51.980;4.464;2023-06-22T15:30:11;23.54;70.68
71184;DHT22;58887;51.980;4.464;2023-06-22T15:32:37;23.55;70.38